Time;durP1;ratioP1;P1;durP2;ratioP2;P2;SDS_P1;SDS_P2;PMS_P1;PMS_P2;Temp;Humidity;BMP_temperature;BMP_pressure;BME280_temperature;BME280_humidity;BME280_pressure;Samples;Min_cycle;Max_cycle;Signal;HPM_P1;HPM_P2
2022/02/09 00:04:58;;;;;;;;;;;22.60;29.40;;;;;;5073963;28;20411;-63
2022/02/09 00:07:35;;;;;;;;;;;22.60;29.40;;;;;;5086874;28;19928;-62
2022/02/09 00:10:03;;;;;;;;;;;22.60;29.50;;;;;;5089556;28;20399;-62
2022/02/09 00:12:38;;;;;;;;;;;22.50;29.40;;;;;;5086990;28;19928;-62
2022/02/09 00:15:20;;;;;;;;;;;22.50;29.50;;;;;;5089910;28;19993;-62
2022/02/09 00:30:12;;;;;;;;;;;22.50;29.50;;;;;;5088996;28;19924;-62
2022/02/09 00:32:49;;;;;;;;;;;22.50;29.50;;;;;;5085658;28;19928;-62
2022/02/09 00:35:45;;;;;;;;;;;22.50;29.50;;;;;;5089261;28;19924;-62
2022/02/09 00:41:37;;;;;;;;;;;22.50;29.50;;;;;;5088731;28;19919;-62
2022/02/09 01:55:41;;;;;;;;;;;22.40;29.60;;;;;;5092368;28;19931;-62
2022/02/09 02:01:31;;;;;;;;;;;22.30;29.60;;;;;;5091305;28;19919;-63
2022/02/09 02:03:58;;;;;;;;;;;22.30;29.60;;;;;;5072504;28;19924;-62
2022/02/09 02:06:25;;;;;;;;;;;22.30;29.60;;;;;;5090947;28;20347;-62
2022/02/09 02:08:53;;;;;;;;;;;22.30;29.60;;;;;;5090391;28;19924;-62
2022/02/09 02:11:29;;;;;;;;;;;22.30;29.60;;;;;;5090933;28;20377;-62
2022/02/09 02:14:13;;;;;;;;;;;22.30;29.60;;;;;;5090879;28;19928;-62
2022/02/09 02:16:53;;;;;;;;;;;22.30;29.70;;;;;;5090213;28;19928;-62
2022/02/09 02:19:38;;;;;;;;;;;22.30;29.70;;;;;;5091290;28;19928;-62
2022/02/09 02:22:28;;;;;;;;;;;22.30;29.70;;;;;;5089499;28;20431;-62
2022/02/09 02:25:34;;;;;;;;;;;22.30;29.60;;;;;;5091763;28;19924;-62
2022/02/09 02:28:10;;;;;;;;;;;22.30;29.70;;;;;;5088283;28;19932;-62
2022/02/09 02:31:09;;;;;;;;;;;22.30;29.60;;;;;;5092072;28;19928;-62
2022/02/09 02:43:10;;;;;;;;;;;22.30;29.70;;;;;;5089362;28;19924;-62
2022/02/09 02:56:49;;;;;;;;;;;22.30;29.70;;;;;;5088422;28;19977;-62
2022/02/09 03:11:02;;;;;;;;;;;22.30;29.70;;;;;;5091053;28;19928;-62
2022/02/09 03:16:58;;;;;;;;;;;22.30;29.70;;;;;;5088602;28;20334;-62
2022/02/09 03:22:27;;;;;;;;;;;22.20;29.60;;;;;;5088285;28;19924;-62
2022/02/09 03:25:19;;;;;;;;;;;22.20;29.60;;;;;;5090678;28;19982;-62
2022/02/09 03:30:53;;;;;;;;;;;22.30;29.70;;;;;;5087205;28;19977;-63
2022/02/09 03:50:46;;;;;;;;;;;22.30;29.70;;;;;;5090204;28;20377;-62
2022/02/09 03:56:55;;;;;;;;;;;22.30;29.70;;;;;;5089080;28;20019;-62
2022/02/09 03:59:22;;;;;;;;;;;22.20;29.60;;;;;;5088931;28;19969;-62
2022/02/09 04:01:49;;;;;;;;;;;22.20;29.60;;;;;;5088336;28;19932;-62
2022/02/09 04:04:17;;;;;;;;;;;22.20;29.70;;;;;;5088614;28;19981;-62
2022/02/09 04:06:48;;;;;;;;;;;22.20;29.70;;;;;;5088638;28;19928;-62
2022/02/09 04:09:18;;;;;;;;;;;22.20;29.70;;;;;;5088814;28;20056;-62
2022/02/09 04:11:52;;;;;;;;;;;22.20;29.70;;;;;;5088006;28;19924;-62
2022/02/09 04:14:32;;;;;;;;;;;22.20;29.70;;;;;;5088568;28;19978;-62
2022/02/09 04:17:14;;;;;;;;;;;22.20;29.70;;;;;;5087549;28;19925;-62
2022/02/09 04:20:13;;;;;;;;;;;22.20;29.80;;;;;;5089497;28;19950;-62
2022/02/09 04:38:01;;;;;;;;;;;22.20;30.10;;;;;;5086158;28;19967;-62
2022/02/09 04:40:01;;;;;;;;;;;22.10;30.00;;;;;;5088799;28;19924;-62
2022/02/09 04:42:42;;;;;;;;;;;22.10;30.00;;;;;;5086741;28;20301;-62
2022/02/09 04:48:25;;;;;;;;;;;22.10;30.00;;;;;;5085825;28;19925;-65
2022/02/09 04:51:01;;;;;;;;;;;22.10;30.00;;;;;;5089044;28;19979;-62
2022/02/09 04:57:08;;;;;;;;;;;22.10;29.90;;;;;;5087273;28;20125;-62
2022/02/09 04:59:51;;;;;;;;;;;22.10;29.80;;;;;;5088409;28;19931;-62
2022/02/09 05:05:32;;;;;;;;;;;22.10;29.70;;;;;;5090104;28;19924;-62
2022/02/09 05:22:32;;;;;;;;;;;22.10;29.60;;;;;;5087678;28;19920;-62
2022/02/09 05:25:13;;;;;;;;;;;22.10;29.60;;;;;;5092296;28;19924;-62
2022/02/09 05:28:00;;;;;;;;;;;22.10;29.70;;;;;;5083333;28;20008;-62
2022/02/09 05:30:31;;;;;;;;;;;22.10;29.70;;;;;;5058344;28;19928;-62
2022/02/09 05:32:58;;;;;;;;;;;22.10;29.70;;;;;;5051344;28;19928;-62
2022/02/09 05:35:26;;;;;;;;;;;22.00;29.60;;;;;;5072891;28;19924;-64
2022/02/09 05:37:53;;;;;;;;;;;22.10;29.70;;;;;;5081914;28;19928;-62
2022/02/09 05:40:21;;;;;;;;;;;22.10;29.70;;;;;;5092556;28;20381;-62
2022/02/09 05:42:48;;;;;;;;;;;22.10;29.70;;;;;;5088246;28;20461;-62
2022/02/09 05:45:25;;;;;;;;;;;22.00;29.60;;;;;;5092881;28;19924;-62
2022/02/09 05:50:59;;;;;;;;;;;22.10;29.60;;;;;;5092644;28;20033;-62
2022/02/09 05:53:43;;;;;;;;;;;22.00;29.60;;;;;;5087546;28;20357;-62
2022/02/09 05:56:35;;;;;;;;;;;22.00;29.50;;;;;;5088270;28;20450;-63
2022/02/09 05:59:06;;;;;;;;;;;22.00;29.50;;;;;;5087469;28;19986;-62
2022/02/09 06:01:33;;;;;;;;;;;22.00;29.50;;;;;;5088503;28;19932;-62
2022/02/09 06:04:00;;;;;;;;;;;22.00;29.50;;;;;;5088898;28;20296;-62
2022/02/09 06:06:27;;;;;;;;;;;22.00;29.50;;;;;;5089061;28;19931;-62
2022/02/09 06:08:56;;;;;;;;;;;22.00;29.40;;;;;;5079854;28;19985;-62
2022/02/09 06:11:29;;;;;;;;;;;22.00;29.30;;;;;;5077686;28;19924;-62
2022/02/09 06:22:05;;;;;;;;;;;22.00;29.30;;;;;;5091676;28;19924;-61
2022/02/09 06:24:32;;;;;;;;;;;22.00;29.20;;;;;;5092354;28;20340;-62
2022/02/09 06:27:00;;;;;;;;;;;22.00;29.10;;;;;;5085391;28;19928;-61
2022/02/09 06:29:26;;;;;;;;;;;22.00;29.10;;;;;;5089952;28;19944;-61
2022/02/09 06:31:53;;;;;;;;;;;22.10;29.10;;;;;;5090848;28;20251;-61
2022/02/09 06:34:21;;;;;;;;;;;22.10;29.00;;;;;;5091311;28;19924;-62
2022/02/09 06:36:57;;;;;;;;;;;22.20;29.00;;;;;;5084263;28;19931;-62
2022/02/09 06:39:25;;;;;;;;;;;22.20;28.90;;;;;;5085110;28;19937;-63
2022/02/09 06:41:52;;;;;;;;;;;22.30;28.90;;;;;;5089034;28;19928;-63
2022/02/09 06:44:20;;;;;;;;;;;22.30;29.20;;;;;;5091417;28;19955;-62
2022/02/09 06:46:48;;;;;;;;;;;22.40;29.40;;;;;;5088261;28;19958;-62
2022/02/09 06:49:17;;;;;;;;;;;22.40;29.40;;;;;;5088502;28;20382;-63
2022/02/09 06:51:46;;;;;;;;;;;22.50;29.30;;;;;;5090913;28;19973;-62
2022/02/09 06:54:22;;;;;;;;;;;22.60;29.30;;;;;;5089757;28;19928;-65
2022/02/09 06:59:41;;;;;;;;;;;22.70;29.10;;;;;;5072397;28;19931;-63
2022/02/09 07:02:08;;;;;;;;;;;22.80;29.10;;;;;;5071135;28;19924;-63
2022/02/09 07:04:36;;;;;;;;;;;22.80;29.10;;;;;;5070475;28;19924;-63
2022/02/09 07:07:04;;;;;;;;;;;22.90;29.00;;;;;;5073546;28;19928;-61
2022/02/09 07:09:31;;;;;;;;;;;22.90;28.90;;;;;;5074518;28;19968;-60
2022/02/09 07:11:58;;;;;;;;;;;23.00;28.90;;;;;;5070524;28;20315;-60
2022/02/09 07:14:28;;;;;;;;;;;23.10;28.80;;;;;;5070819;28;19924;-61
2022/02/09 07:16:56;;;;;;;;;;;23.20;28.80;;;;;;5074812;28;20334;-60
2022/02/09 07:19:23;;;;;;;;;;;23.20;28.70;;;;;;5053865;28;19924;-60
2022/02/09 07:21:52;;;;;;;;;;;23.30;28.50;;;;;;5068057;28;19943;-62
2022/02/09 07:24:21;;;;;;;;;;;23.30;28.50;;;;;;5066538;28;19953;-60
2022/02/09 07:26:50;;;;;;;;;;;23.40;29.00;;;;;;5059590;28;19995;-60
2022/02/09 07:29:18;;;;;;;;;;;23.40;28.90;;;;;;5085096;28;19931;-60
2022/02/09 07:31:46;;;;;;;;;;;23.50;28.90;;;;;;5090058;28;19924;-66
2022/02/09 07:34:14;;;;;;;;;;;23.50;28.90;;;;;;5089474;28;20019;-63
2022/02/09 07:36:43;;;;;;;;;;;23.50;28.60;;;;;;5089672;28;20003;-61
2022/02/09 07:39:10;;;;;;;;;;;23.50;28.30;;;;;;5085577;28;19924;-64
2022/02/09 07:41:40;;;;;;;;;;;23.50;28.00;;;;;;5090296;28;19928;-62
2022/02/09 07:44:32;;;;;;;;;;;23.50;28.00;;;;;;5088243;28;19931;-65
2022/02/09 07:47:23;;;;;;;;;;;23.50;27.90;;;;;;5090238;28;19924;-64
2022/02/09 07:50:15;;;;;;;;;;;23.50;27.70;;;;;;5082769;28;20300;-62
2022/02/09 07:52:28;;;;;;;;;;;23.50;27.70;;;;;;5076781;28;19932;-62
2022/02/09 07:54:57;;;;;;;;;;;23.50;27.70;;;;;;5078383;28;19932;-63
2022/02/09 07:57:24;;;;;;;;;;;23.50;27.60;;;;;;5084069;28;19936;-63
2022/02/09 07:59:51;;;;;;;;;;;23.60;27.80;;;;;;5082648;28;19977;-62
2022/02/09 08:02:18;;;;;;;;;;;23.60;27.70;;;;;;5081536;28;19924;-67
2022/02/09 08:04:45;;;;;;;;;;;23.60;27.80;;;;;;5083362;28;19970;-62
2022/02/09 08:07:13;;;;;;;;;;;23.60;27.70;;;;;;5080432;28;19951;-62
2022/02/09 08:09:42;;;;;;;;;;;23.60;27.70;;;;;;5077347;28;19932;-64
2022/02/09 08:12:40;;;;;;;;;;;23.70;27.70;;;;;;5079222;28;20287;-63
2022/02/09 08:21:42;;;;;;;;;;;23.70;27.40;;;;;;5079420;28;19924;-63
2022/02/09 08:26:45;;;;;;;;;;;23.70;27.40;;;;;;5061956;28;19936;-64
2022/02/09 08:29:19;;;;;;;;;;;23.80;27.40;;;;;;5081003;28;19932;-63
2022/02/09 08:32:25;;;;;;;;;;;23.80;27.50;;;;;;5079670;28;19932;-64
2022/02/09 08:34:30;;;;;;;;;;;23.90;27.40;;;;;;5084025;28;20381;-67
2022/02/09 08:36:57;;;;;;;;;;;23.90;27.50;;;;;;5080350;28;20009;-65
2022/02/09 08:39:25;;;;;;;;;;;23.90;27.90;;;;;;5083640;28;19988;-64
2022/02/09 08:41:53;;;;;;;;;;;23.90;27.50;;;;;;5079976;28;19928;-62
2022/02/09 08:44:20;;;;;;;;;;;23.90;27.50;;;;;;5096795;28;19977;-66
2022/02/09 08:46:48;;;;;;;;;;;23.80;27.40;;;;;;5080090;28;19932;-65
2022/02/09 08:49:15;;;;;;;;;;;23.80;27.30;;;;;;5086702;28;20411;-72
2022/02/09 08:51:42;;;;;;;;;;;23.80;27.20;;;;;;5081218;28;19938;-72
2022/02/09 08:54:10;;;;;;;;;;;23.80;27.20;;;;;;5086156;28;19955;-72
2022/02/09 08:56:38;;;;;;;;;;;23.80;27.20;;;;;;5075224;28;19982;-71
2022/02/09 08:59:07;;;;;;;;;;;23.70;27.20;;;;;;5081231;28;19990;-66
2022/02/09 09:01:43;;;;;;;;;;;23.80;27.40;;;;;;5081516;28;20428;-66
2022/02/09 09:04:25;;;;;;;;;;;23.80;27.40;;;;;;5084689;28;19924;-65
2022/02/09 09:06:57;;;;;;;;;;;23.80;27.10;;;;;;5082304;28;19932;-65
2022/02/09 09:09:41;;;;;;;;;;;23.80;27.00;;;;;;5081852;28;19924;-65
2022/02/09 09:16:04;;;;;;;;;;;23.70;26.90;;;;;;5071725;28;20000;-66
2022/02/09 09:18:17;;;;;;;;;;;23.80;26.90;;;;;;5081571;28;19928;-66
2022/02/09 10:03:24;;;;;;;;;;;23.70;27.20;;;;;;5080341;28;19924;-65
2022/02/09 10:38:16;;;;;;;;;;;23.80;28.00;;;;;;5085159;28;20449;-64
2022/02/09 10:40:48;;;;;;;;;;;23.80;28.10;;;;;;5081842;28;20385;-63
2022/02/09 10:43:31;;;;;;;;;;;23.80;28.20;;;;;;5087551;28;19982;-63
2022/02/09 10:46:21;;;;;;;;;;;23.80;28.10;;;;;;5086726;28;19983;-63
2022/02/09 10:52:07;;;;;;;;;;;23.90;28.20;;;;;;5081343;28;20092;-62
2022/02/09 10:54:35;;;;;;;;;;;23.90;28.20;;;;;;5087959;28;19939;-62
2022/02/09 10:57:04;;;;;;;;;;;23.90;28.20;;;;;;5065903;28;19931;-64
2022/02/09 10:59:35;;;;;;;;;;;23.90;28.20;;;;;;5087870;28;19928;-64
2022/02/09 11:02:03;;;;;;;;;;;23.90;28.20;;;;;;5082083;28;19946;-65
2022/02/09 11:04:32;;;;;;;;;;;24.00;28.30;;;;;;5087731;28;19928;-65
2022/02/09 11:07:00;;;;;;;;;;;24.00;28.30;;;;;;5087654;28;19932;-64
2022/02/09 11:09:28;;;;;;;;;;;24.10;28.40;;;;;;5088580;28;20023;-65
2022/02/09 11:11:55;;;;;;;;;;;24.00;28.30;;;;;;5085461;28;19931;-66
2022/02/09 11:14:24;;;;;;;;;;;24.00;28.30;;;;;;5086366;28;20007;-66
2022/02/09 11:16:53;;;;;;;;;;;24.10;28.30;;;;;;5085900;28;19928;-65
2022/02/09 11:19:40;;;;;;;;;;;24.10;28.20;;;;;;5074980;28;19971;-66
2022/02/09 11:22:12;;;;;;;;;;;24.10;28.10;;;;;;5082170;28;19933;-63
2022/02/09 11:24:48;;;;;;;;;;;24.10;28.10;;;;;;5088671;28;19935;-64
2022/02/09 11:27:30;;;;;;;;;;;24.10;28.00;;;;;;5087590;28;20574;-64
2022/02/09 11:30:18;;;;;;;;;;;24.10;28.00;;;;;;5087490;28;19928;-66
2022/02/09 11:33:17;;;;;;;;;;;24.10;28.00;;;;;;5093132;28;19929;-66
2022/02/09 11:36:03;;;;;;;;;;;24.10;27.90;;;;;;5070181;28;19924;-66
2022/02/09 11:38:38;;;;;;;;;;;24.10;27.90;;;;;;5078479;28;20426;-64
2022/02/09 11:41:14;;;;;;;;;;;24.10;27.90;;;;;;5087277;28;19932;-66
2022/02/09 11:43:46;;;;;;;;;;;24.10;27.90;;;;;;5075079;28;19970;-61
2022/02/09 11:46:46;;;;;;;;;;;24.10;27.90;;;;;;5070555;28;19924;-60
2022/02/09 11:52:29;;;;;;;;;;;24.20;27.90;;;;;;5086543;28;19998;-64
2022/02/09 12:00:55;;;;;;;;;;;24.10;27.80;;;;;;5090180;28;19931;-66
2022/02/09 12:09:54;;;;;;;;;;;24.10;28.00;;;;;;5090528;28;19928;-63
2022/02/09 12:12:38;;;;;;;;;;;24.10;28.10;;;;;;5085512;28;19945;-63
2022/02/09 12:15:29;;;;;;;;;;;24.20;28.40;;;;;;5089384;28;19924;-64
2022/02/09 12:18:13;;;;;;;;;;;24.20;28.30;;;;;;5089986;28;19969;-64
2022/02/09 12:20:47;;;;;;;;;;;24.20;28.40;;;;;;5090382;28;20452;-65
2022/02/09 12:23:29;;;;;;;;;;;24.30;28.40;;;;;;5091115;28;19985;-66
2022/02/09 12:25:56;;;;;;;;;;;24.30;28.40;;;;;;5089979;28;19923;-64
2022/02/09 12:28:30;;;;;;;;;;;24.30;28.40;;;;;;5089592;28;20381;-63
2022/02/09 12:31:05;;;;;;;;;;;24.30;28.30;;;;;;5090263;28;20328;-62
2022/02/09 12:33:32;;;;;;;;;;;24.30;28.30;;;;;;5091075;28;19970;-65
2022/02/09 12:36:11;;;;;;;;;;;24.30;28.40;;;;;;5088355;28;19925;-63
2022/02/09 12:38:40;;;;;;;;;;;24.40;28.40;;;;;;5088614;28;20380;-65
2022/02/09 12:41:11;;;;;;;;;;;24.40;28.50;;;;;;5089484;28;20361;-62
2022/02/09 12:43:49;;;;;;;;;;;24.50;28.40;;;;;;5087969;28;20024;-63
2022/02/09 12:46:17;;;;;;;;;;;24.50;28.40;;;;;;5089348;28;19963;-63
2022/02/09 12:48:44;;;;;;;;;;;24.50;28.40;;;;;;5087151;28;19928;-63
2022/02/09 12:51:26;;;;;;;;;;;24.50;28.30;;;;;;5090025;28;19928;-63
2022/02/09 12:53:58;;;;;;;;;;;24.50;28.40;;;;;;5088308;28;19948;-64
2022/02/09 12:56:30;;;;;;;;;;;24.60;28.30;;;;;;5088929;28;20019;-65
2022/02/09 12:59:01;;;;;;;;;;;24.60;28.30;;;;;;5089530;28;19969;-64
2022/02/09 13:01:38;;;;;;;;;;;24.60;28.20;;;;;;5089219;28;19928;-65
2022/02/09 13:04:05;;;;;;;;;;;24.60;28.20;;;;;;5088339;28;20445;-65
2022/02/09 13:06:32;;;;;;;;;;;24.60;28.20;;;;;;5089311;28;19924;-65
2022/02/09 13:08:59;;;;;;;;;;;24.60;28.20;;;;;;5088817;28;19928;-67
2022/02/09 13:11:29;;;;;;;;;;;24.60;28.30;;;;;;5090173;28;19932;-62
2022/02/09 13:14:06;;;;;;;;;;;24.60;28.50;;;;;;5087852;28;19928;-63
2022/02/09 13:16:47;;;;;;;;;;;24.60;28.50;;;;;;5084819;28;19947;-64
2022/02/09 13:19:46;;;;;;;;;;;24.60;28.50;;;;;;5078847;28;19969;-63
2022/02/09 13:25:33;;;;;;;;;;;24.70;29.10;;;;;;5073552;28;20288;-65
2022/02/09 14:14:56;;;;;;;;;;;24.90;29.50;;;;;;5083815;28;20377;-66
2022/02/09 14:17:19;;;;;;;;;;;24.90;29.30;;;;;;5086144;28;20259;-66
2022/02/09 14:23:54;;;;;;;;;;;24.80;29.10;;;;;;5090938;28;19978;-64
2022/02/09 14:35:10;;;;;;;;;;;24.80;28.10;;;;;;5074751;28;20370;-66
2022/02/09 14:50:18;;;;;;;;;;;24.70;28.10;;;;;;5089324;28;19932;-65
2022/02/09 14:52:20;;;;;;;;;;;24.70;28.00;;;;;;5092026;28;19982;-67
2022/02/09 14:54:57;;;;;;;;;;;24.60;28.00;;;;;;5092079;28;19924;-67
2022/02/09 14:57:30;;;;;;;;;;;24.60;28.10;;;;;;5090314;28;19932;-63
2022/02/09 15:00:09;;;;;;;;;;;24.60;28.10;;;;;;5089545;28;19970;-64
2022/02/09 15:02:58;;;;;;;;;;;24.60;28.10;;;;;;5091530;28;19924;-64
2022/02/09 15:05:56;;;;;;;;;;;24.60;28.20;;;;;;5092420;28;19924;-64
2022/02/09 15:08:23;;;;;;;;;;;24.50;28.40;;;;;;5081561;28;20426;-64
2022/02/09 15:11:04;;;;;;;;;;;24.50;28.40;;;;;;5091727;28;19969;-65
2022/02/09 15:13:44;;;;;;;;;;;24.50;28.50;;;;;;5092237;28;19928;-65
2022/02/09 15:16:21;;;;;;;;;;;24.50;28.60;;;;;;5091438;28;19934;-64
2022/02/09 15:19:13;;;;;;;;;;;24.60;28.50;;;;;;5088575;28;20065;-67
2022/02/09 15:24:28;;;;;;;;;;;24.50;28.50;;;;;;5091697;28;20365;-64
2022/02/09 15:26:58;;;;;;;;;;;24.50;28.50;;;;;;5090958;28;19924;-64
2022/02/09 15:29:25;;;;;;;;;;;24.50;28.60;;;;;;5087594;28;19928;-63
2022/02/09 15:31:57;;;;;;;;;;;24.50;28.60;;;;;;5091465;28;19978;-66
2022/02/09 15:34:31;;;;;;;;;;;24.50;28.60;;;;;;5089699;28;19931;-65
2022/02/09 15:37:10;;;;;;;;;;;24.50;28.60;;;;;;5090788;28;19924;-65
2022/02/09 15:39:47;;;;;;;;;;;24.50;28.50;;;;;;5111120;28;19927;-66
2022/02/09 15:42:33;;;;;;;;;;;24.40;28.40;;;;;;5112101;28;20003;-65
2022/02/09 15:57:42;;;;;;;;;;;24.20;28.00;;;;;;5088714;28;20002;-66
2022/02/09 16:23:01;;;;;;;;;;;23.90;28.70;;;;;;5074110;28;20385;-67
2022/02/09 16:33:13;;;;;;;;;;;23.80;28.80;;;;;;5090268;28;19969;-67
2022/02/09 16:46:12;;;;;;;;;;;23.60;29.00;;;;;;5089833;28;19924;-66
2022/02/09 16:48:33;;;;;;;;;;;23.60;29.00;;;;;;5087439;28;20084;-67
2022/02/09 16:51:10;;;;;;;;;;;23.60;29.00;;;;;;5089734;28;20368;-67
2022/02/09 17:20:31;;;;;;;;;;;23.50;35.60;;;;;;5089539;28;20005;-62
2022/02/09 17:22:58;;;;;;;;;;;23.50;35.60;;;;;;5088383;28;19928;-63
2022/02/09 17:25:25;;;;;;;;;;;23.40;35.30;;;;;;5088406;28;19924;-63
2022/02/09 17:27:52;;;;;;;;;;;23.40;34.90;;;;;;5086788;28;20255;-63
2022/02/09 17:30:43;;;;;;;;;;;23.40;34.60;;;;;;5089472;28;19924;-64
2022/02/09 17:37:13;;;;;;;;;;;23.40;35.10;;;;;;5087364;28;19974;-64
2022/02/09 17:55:22;;;;;;;;;;;23.30;34.60;;;;;;5087254;28;19924;-64
2022/02/09 17:57:22;;;;;;;;;;;23.20;34.30;;;;;;5086742;28;19978;-63
2022/02/09 18:00:08;;;;;;;;;;;23.20;34.20;;;;;;5087970;28;20434;-64
2022/02/09 18:02:35;;;;;;;;;;;23.20;34.10;;;;;;5088633;28;19924;-63
2022/02/09 18:05:05;;;;;;;;;;;23.20;33.90;;;;;;5088079;28;20430;-63
2022/02/09 18:07:35;;;;;;;;;;;23.20;33.70;;;;;;5086363;28;19932;-63
2022/02/09 18:10:13;;;;;;;;;;;23.20;33.60;;;;;;5089557;28;20238;-64
2022/02/09 18:13:02;;;;;;;;;;;23.20;33.40;;;;;;5091667;28;19924;-63
2022/02/09 18:30:07;;;;;;;;;;;23.10;32.90;;;;;;5091473;28;19973;-64
2022/02/09 18:32:54;;;;;;;;;;;23.10;33.00;;;;;;5091164;28;20292;-67
2022/02/09 18:48:05;;;;;;;;;;;23.00;32.90;;;;;;5074244;28;19924;-63
2022/02/09 19:00:00;;;;;;;;;;;23.00;32.80;;;;;;5075902;28;19995;-63
2022/02/09 19:02:40;;;;;;;;;;;23.00;32.80;;;;;;5091072;28;19953;-63
2022/02/09 19:05:32;;;;;;;;;;;23.00;32.80;;;;;;5090643;28;19924;-63
2022/02/09 19:08:14;;;;;;;;;;;22.90;32.70;;;;;;5088751;28;19924;-64
2022/02/09 19:16:43;;;;;;;;;;;22.90;32.70;;;;;;5089590;28;19983;-63
2022/02/09 19:30:48;;;;;;;;;;;22.90;32.60;;;;;;5091776;28;19978;-63
2022/02/09 19:44:02;;;;;;;;;;;22.80;32.50;;;;;;5090396;28;20352;-63
2022/02/09 19:45:48;;;;;;;;;;;22.70;32.50;;;;;;5089306;28;19977;-64
2022/02/09 19:52:34;;;;;;;;;;;22.70;32.50;;;;;;5090940;28;19919;-64
2022/02/09 19:55:19;;;;;;;;;;;22.70;32.40;;;;;;5071264;28;19931;-64
2022/02/09 19:57:46;;;;;;;;;;;22.70;33.00;;;;;;5072828;28;19928;-64
2022/02/09 20:00:18;;;;;;;;;;;22.70;32.40;;;;;;5090585;28;19928;-63
2022/02/09 20:02:47;;;;;;;;;;;22.70;32.40;;;;;;5089426;28;20369;-63
2022/02/09 20:05:15;;;;;;;;;;;22.70;32.30;;;;;;5089299;28;19931;-63
2022/02/09 20:07:42;;;;;;;;;;;22.70;32.40;;;;;;5088223;28;19924;-63
2022/02/09 20:10:11;;;;;;;;;;;22.70;32.30;;;;;;5090336;28;19924;-63
2022/02/09 20:12:39;;;;;;;;;;;22.70;32.30;;;;;;5089532;28;19924;-63
2022/02/09 20:15:11;;;;;;;;;;;22.70;32.30;;;;;;5071425;28;19947;-63
2022/02/09 20:17:40;;;;;;;;;;;22.70;32.30;;;;;;5088274;28;19924;-63
2022/02/09 20:20:11;;;;;;;;;;;22.70;32.30;;;;;;5090142;28;20311;-64
2022/02/09 20:22:38;;;;;;;;;;;22.70;32.30;;;;;;5089386;28;19932;-64
2022/02/09 20:25:06;;;;;;;;;;;22.70;32.30;;;;;;5088328;28;19977;-63
2022/02/09 20:27:35;;;;;;;;;;;22.60;32.30;;;;;;5087527;28;20439;-63
2022/02/09 20:30:05;;;;;;;;;;;22.60;32.20;;;;;;5089590;28;20217;-64
2022/02/09 20:32:37;;;;;;;;;;;22.60;32.20;;;;;;5088786;28;20369;-64
2022/02/09 20:35:06;;;;;;;;;;;22.60;32.20;;;;;;5088316;28;19924;-63
2022/02/09 20:37:37;;;;;;;;;;;22.60;32.20;;;;;;5087968;28;19928;-63
2022/02/09 20:40:10;;;;;;;;;;;22.60;32.20;;;;;;5089837;28;19931;-63
2022/02/09 20:42:39;;;;;;;;;;;22.60;32.20;;;;;;5089252;28;19960;-63
2022/02/09 20:45:15;;;;;;;;;;;22.60;32.20;;;;;;5088432;28;19924;-63
2022/02/09 20:47:45;;;;;;;;;;;22.60;32.20;;;;;;5070792;28;20316;-63
2022/02/09 20:50:12;;;;;;;;;;;22.60;32.20;;;;;;5089447;28;20374;-63
2022/02/09 20:52:39;;;;;;;;;;;22.50;32.10;;;;;;5088299;28;19924;-63
2022/02/09 20:55:06;;;;;;;;;;;22.50;32.20;;;;;;5088694;28;19961;-63
2022/02/09 20:57:35;;;;;;;;;;;22.50;32.20;;;;;;5087561;28;20430;-64
2022/02/09 21:00:10;;;;;;;;;;;22.50;32.20;;;;;;5088929;28;19924;-63
2022/02/09 21:02:48;;;;;;;;;;;22.50;32.20;;;;;;5088717;28;19927;-63
2022/02/09 21:05:32;;;;;;;;;;;22.50;32.20;;;;;;5088669;28;19970;-63
2022/02/09 21:11:03;;;;;;;;;;;22.50;32.20;;;;;;5089832;28;19935;-63
2022/02/09 21:17:34;;;;;;;;;;;22.50;32.20;;;;;;5086885;28;19922;-63
2022/02/09 21:20:22;;;;;;;;;;;22.50;32.10;;;;;;5088312;28;20381;-63
2022/02/09 21:22:54;;;;;;;;;;;22.50;32.10;;;;;;5087633;28;20008;-63
2022/02/09 21:25:54;;;;;;;;;;;22.50;32.10;;;;;;5088649;28;19924;-63
2022/02/09 21:32:35;;;;;;;;;;;22.40;32.10;;;;;;5089381;28;20020;-63
2022/02/09 21:55:29;;;;;;;;;;;22.50;32.00;;;;;;5077225;28;19928;-63
2022/02/09 21:58:07;;;;;;;;;;;22.50;32.00;;;;;;5090248;28;20445;-63
2022/02/09 22:00:46;;;;;;;;;;;22.50;31.90;;;;;;5093625;28;20104;-63
2022/02/09 22:06:24;;;;;;;;;;;22.50;31.90;;;;;;5091134;28;20361;-63
2022/02/09 22:20:45;;;;;;;;;;;22.50;31.80;;;;;;5092957;28;19949;-62
2022/02/09 22:30:29;;;;;;;;;;;22.50;31.70;;;;;;5091520;28;19924;-62
2022/02/09 22:33:26;;;;;;;;;;;22.50;31.70;;;;;;5091656;28;20377;-62
2022/02/09 22:55:22;;;;;;;;;;;22.50;31.70;;;;;;5090830;28;20004;-63
2022/02/09 22:58:03;;;;;;;;;;;22.50;31.70;;;;;;5088704;28;19924;-62
2022/02/09 23:00:59;;;;;;;;;;;22.50;31.70;;;;;;5091882;28;19950;-62
2022/02/09 23:07:10;;;;;;;;;;;22.50;31.70;;;;;;5089492;28;19973;-63
2022/02/09 23:12:36;;;;;;;;;;;22.50;31.70;;;;;;5076164;28;19924;-62
2022/02/09 23:15:31;;;;;;;;;;;22.50;31.70;;;;;;5090112;28;19924;-63
2022/02/09 23:18:32;;;;;;;;;;;22.50;31.60;;;;;;5088208;28;19924;-66
2022/02/09 23:21:14;;;;;;;;;;;22.50;31.60;;;;;;5091654;28;19936;-63
2022/02/09 23:23:53;;;;;;;;;;;22.50;31.60;;;;;;5089578;28;19928;-63
2022/02/09 23:26:44;;;;;;;;;;;22.50;31.70;;;;;;5089169;28;19924;-62
2022/02/09 23:53:18;;;;;;;;;;;22.40;31.60;;;;;;5090192;28;20316;-63
2022/02/09 23:55:58;;;;;;;;;;;22.40;31.60;;;;;;5089856;28;19924;-63
